Ana Sayfa
METAR-TAF:

METAR-TAF

Havaalanları :

Wings Field

Philadelphia / Blue Bell, Pensilvanya, Amerika Birleşik Devletleri

Enlem: 40-08-15N, Boylam: 075-15-54W, yükseklik: 92 m

Güncel hava durumu gözlemi

Rapor saat 13:35 UTC de 33 dakika önce yapıldı.
Rüzgar batı/kuzeybatıdan 7 kt
Sıcaklık -4°C
Nem 54%
Basınç 1028 hPa
Görüş mesafesi: 16.1 km
Açık gökyüzü

METAR: KLOM 131335Z AUTO 30007KT 10SM CLR M04/M12 A3036 RMK AO2 T10421115

Saat: 09:08 (14:08 UTC)


TAF: eksik

4.000'den fazla havaalanı için hava durumu gözlemleri ve tahminleri (METAR ve TAF raporları).

Kullanılabilir istasyonlar harita üzerinde sarı ve kırmızı noktalarla gösterilir.

İstasyonun adını görmek için fareyi noktanın üzerinde gezdirin.

Sonrasında hava gözlem ve tahminlerini görmek için tıklayın.

Haritayı değiştirmek için: yaklaştırmak için siyah artı işaretli yeşil düğmeye ve uzaklaştırmak için de eksi işaretli düğmeye hızla tıklayın; bitişik haritalar için yeşil okları kullanın.


METAR-TAF: